createdAt,value
2022-12-15T00:02:11.862Z,99283.81
2022-12-15T00:05:34.178Z,99289.31
2022-12-15T00:08:55.629Z,99287.09
2022-12-15T00:12:18.301Z,99288.78
2022-12-15T00:15:39.850Z,99292.13
2022-12-15T00:19:01.332Z,99297.81
2022-12-15T00:22:23.751Z,99307.09
2022-12-15T00:25:45.434Z,99307.00
2022-12-15T00:29:06.474Z,99316.50
2022-12-15T00:32:27.863Z,99319.75
2022-12-15T00:35:49.028Z,99315.75
2022-12-15T00:38:52.210Z,99316.91
2022-12-15T00:41:54.804Z,99312.59
2022-12-15T00:44:58.616Z,99311.09
2022-12-15T00:48:01.091Z,99319.88
2022-12-15T00:51:04.203Z,99315.63
2022-12-15T00:54:25.273Z,99319.16
2022-12-15T00:57:46.551Z,99315.78
2022-12-15T01:01:07.693Z,99316.56
2022-12-15T01:04:29.462Z,99313.13
2022-12-15T01:07:50.916Z,99305.06
2022-12-15T01:11:13.217Z,99304.47
2022-12-15T01:14:34.464Z,99293.38
2022-12-15T01:17:56.325Z,99291.53
2022-12-15T01:21:04.901Z,99307.91
2022-12-15T01:24:07.988Z,99322.00
2022-12-15T01:27:10.461Z,99309.50
2022-12-15T01:30:16.637Z,99317.31
2022-12-15T01:33:20.189Z,99321.13
2022-12-15T01:36:23.207Z,99320.38
2022-12-15T01:39:45.790Z,99315.59
2022-12-15T01:42:49.382Z,99317.63
2022-12-15T01:46:04.917Z,99320.66
2022-12-15T01:49:28.798Z,99321.53
2022-12-15T01:52:31.461Z,99318.78
2022-12-15T01:55:38.026Z,99319.50
2022-12-15T01:58:43.511Z,99310.84
2022-12-15T02:01:49.862Z,99312.59
2022-12-15T02:04:56.982Z,99311.53
2022-12-15T02:08:01.482Z,99323.41
2022-12-15T02:11:30.302Z,99324.28
2022-12-15T02:15:05.704Z,99324.28
2022-12-15T02:18:40.013Z,99310.94
2022-12-15T02:22:00.034Z,99320.47
2022-12-15T02:25:24.464Z,99322.34
2022-12-15T02:28:27.099Z,99327.31
2022-12-15T02:31:50.781Z,99315.97
2022-12-15T02:34:55.408Z,99326.34
2022-12-15T02:37:58.263Z,99314.81
2022-12-15T02:41:03.847Z,99314.09
2022-12-15T02:44:14.308Z,99327.66
2022-12-15T02:48:01.218Z,99318.38
2022-12-15T02:51:21.174Z,99336.44
2022-12-15T02:54:37.130Z,99331.72
2022-12-15T02:58:03.281Z,99339.22
2022-12-15T03:01:13.811Z,99332.72
2022-12-15T03:04:17.078Z,99327.12
2022-12-15T03:07:19.797Z,99335.53
2022-12-15T03:10:25.490Z,99323.41
2022-12-15T03:13:28.578Z,99343.00
2022-12-15T03:16:31.536Z,99352.63
2022-12-15T03:19:34.482Z,99343.41
2022-12-15T03:22:37.966Z,99344.66
2022-12-15T03:25:40.670Z,99345.09
2022-12-15T03:28:43.341Z,99348.22
2022-12-15T03:31:46.206Z,99347.84
2022-12-15T03:34:52.519Z,99354.91
2022-12-15T03:37:55.222Z,99356.88
2022-12-15T03:40:57.961Z,99351.47
2022-12-15T03:44:01.301Z,99349.59
2022-12-15T03:47:04.448Z,99345.25
2022-12-15T03:50:07.638Z,99347.47
2022-12-15T03:53:10.598Z,99339.78
2022-12-15T03:56:13.875Z,99341.97
2022-12-15T03:59:16.602Z,99353.25
2022-12-15T04:02:19.583Z,99361.31
2022-12-15T04:05:27.935Z,99365.00
2022-12-15T04:08:30.647Z,99368.41
2022-12-15T04:11:33.373Z,99380.00
2022-12-15T04:14:36.120Z,99372.19
2022-12-15T04:17:39.255Z,99364.31
2022-12-15T04:20:41.968Z,99364.41
2022-12-15T04:24:03.268Z,99369.81
2022-12-15T04:27:24.276Z,99378.91
2022-12-15T04:30:45.613Z,99391.22
2022-12-15T04:34:10.487Z,99396.81
2022-12-15T04:37:32.815Z,99404.59
2022-12-15T04:40:54.418Z,99400.81
2022-12-15T04:44:15.725Z,99412.63
2022-12-15T04:47:37.372Z,99411.38
2022-12-15T04:50:58.899Z,99416.13
2022-12-15T04:54:20.449Z,99431.63
2022-12-15T04:57:41.782Z,99443.16
2022-12-15T05:01:03.035Z,99444.47
2022-12-15T05:04:24.541Z,99441.97
2022-12-15T05:07:46.309Z,99439.22
2022-12-15T05:11:08.152Z,99433.91
2022-12-15T05:14:30.325Z,99462.59
2022-12-15T05:17:52.037Z,99469.66
2022-12-15T05:21:13.632Z,99466.31
2022-12-15T05:24:35.146Z,99478.00
2022-12-15T05:27:56.473Z,99477.19
2022-12-15T05:31:17.568Z,99469.31
2022-12-15T05:34:26.534Z,99466.25
2022-12-15T05:37:29.308Z,99472.81
2022-12-15T05:40:32.061Z,99494.84
2022-12-15T05:43:35.118Z,99496.44
2022-12-15T05:46:38.484Z,99495.50
2022-12-15T05:49:41.359Z,99493.81
2022-12-15T05:52:49.175Z,99496.19
2022-12-15T05:55:52.363Z,99506.37
2022-12-15T05:58:58.576Z,99527.31
2022-12-15T06:02:01.347Z,99537.00
2022-12-15T06:05:04.992Z,99543.78
2022-12-15T06:08:10.176Z,99543.09
2022-12-15T06:11:16.019Z,99548.25
2022-12-15T06:14:18.623Z,99552.47
2022-12-15T06:17:21.923Z,99547.28
2022-12-15T06:20:24.400Z,99565.50
2022-12-15T06:23:33.192Z,99562.25
2022-12-15T06:26:38.121Z,99563.22
2022-12-15T06:29:41.244Z,99574.56
2022-12-15T06:32:43.764Z,99586.44
2022-12-15T06:35:47.471Z,99584.28
2022-12-15T06:38:50.661Z,99585.69
2022-12-15T06:41:53.656Z,99592.78
2022-12-15T06:44:56.091Z,99593.47
2022-12-15T06:48:01.560Z,99587.13
2022-12-15T06:51:08.743Z,99592.69
2022-12-15T06:54:16.827Z,99591.00
2022-12-15T06:57:19.284Z,99594.47
2022-12-15T07:00:22.450Z,99616.75
2022-12-15T07:03:25.631Z,99623.66
2022-12-15T07:06:34.229Z,99614.25
2022-12-15T07:09:36.771Z,99606.44
2022-12-15T07:12:39.800Z,99619.31
2022-12-15T07:15:42.818Z,99649.09
2022-12-15T07:18:45.995Z,99641.94
2022-12-15T07:21:48.439Z,99635.31
2022-12-15T07:24:51.489Z,99654.81
2022-12-15T07:27:54.227Z,99639.12
2022-12-15T07:31:05.702Z,99660.13
2022-12-15T07:34:08.220Z,99660.22
2022-12-15T07:37:11.509Z,99648.38
2022-12-15T07:40:13.976Z,99654.31
2022-12-15T07:43:18.055Z,99664.50
2022-12-15T07:46:23.081Z,99672.87
2022-12-15T07:49:26.378Z,99671.00
2022-12-15T07:52:29.489Z,99674.84
2022-12-15T07:56:04.987Z,99677.12
2022-12-15T07:58:55.225Z,99672.53
2022-12-15T08:02:00.690Z,99684.91
2022-12-15T08:05:03.713Z,99689.00
2022-12-15T08:08:15.119Z,99682.44
2022-12-15T08:11:21.026Z,99679.28
2022-12-15T08:14:24.779Z,99693.28
2022-12-15T08:17:27.854Z,99691.78
2022-12-15T08:20:31.317Z,99695.13
2022-12-15T08:23:35.016Z,99701.63
2022-12-15T08:26:38.694Z,99719.19
2022-12-15T08:29:51.204Z,99720.44
2022-12-15T08:32:54.855Z,99724.91
2022-12-15T08:35:59.883Z,99726.25
2022-12-15T08:39:02.921Z,99730.66
2022-12-15T08:42:05.757Z,99742.06
2022-12-15T08:45:09.533Z,99736.09
2022-12-15T08:48:12.272Z,99721.69
2022-12-15T08:51:16.506Z,99723.75
2022-12-15T08:54:21.657Z,99741.59
2022-12-15T08:57:24.583Z,99751.00
2022-12-15T09:00:27.349Z,99754.41
2022-12-15T09:03:30.737Z,99756.41
2022-12-15T09:06:36.871Z,99769.66
2022-12-15T09:09:39.761Z,99762.91
2022-12-15T09:12:42.544Z,99773.75
2022-12-15T09:16:08.423Z,99749.84
2022-12-15T09:19:09.948Z,99743.28
2022-12-15T09:22:12.713Z,99748.78
2022-12-15T09:25:15.558Z,99745.84
2022-12-15T09:28:18.296Z,99754.00
2022-12-15T09:31:24.233Z,99761.38
2022-12-15T09:34:27.659Z,99751.97
2022-12-15T09:37:32.378Z,99746.56
2022-12-15T09:40:35.236Z,99752.84
2022-12-15T09:43:53.450Z,99747.69
2022-12-15T09:47:44.731Z,99742.25
2022-12-15T09:50:51.103Z,99740.72
2022-12-15T09:53:55.395Z,99742.22
2022-12-15T09:57:05.173Z,99737.22
2022-12-15T10:00:14.605Z,99737.34
2022-12-15T10:03:42.679Z,99735.91
2022-12-15T10:06:50.988Z,99737.06
2022-12-15T10:09:53.882Z,99730.53
2022-12-15T10:13:02.966Z,99741.16
2022-12-15T10:16:29.191Z,99756.69
2022-12-15T10:19:59.765Z,99761.97
2022-12-15T10:23:12.435Z,99749.22
2022-12-15T10:26:23.340Z,99755.03
2022-12-15T10:29:50.966Z,99749.59
2022-12-15T10:32:56.579Z,99755.72
2022-12-15T10:35:59.448Z,99749.50
2022-12-15T10:39:02.256Z,99744.19
2022-12-15T10:42:25.577Z,99737.81
2022-12-15T10:45:37.934Z,99741.47
2022-12-15T10:48:48.598Z,99745.06
2022-12-15T10:51:59.548Z,99740.59
2022-12-15T10:55:02.943Z,99741.47
2022-12-15T10:58:20.985Z,99734.47
2022-12-15T11:01:27.926Z,99730.56
2022-12-15T11:04:33.331Z,99732.66
2022-12-15T11:07:40.310Z,99737.34
2022-12-15T11:11:14.006Z,99720.66
2022-12-15T11:14:20.946Z,99750.13
2022-12-15T11:17:24.095Z,99753.88
2022-12-15T11:20:40.365Z,99749.59
2022-12-15T11:24:21.785Z,99749.44
2022-12-15T11:27:40.246Z,99743.47
2022-12-15T11:30:47.159Z,99740.66
2022-12-15T11:33:54.744Z,99730.50
2022-12-15T11:37:34.190Z,99736.53
2022-12-15T11:40:41.186Z,99735.00
2022-12-15T11:43:46.883Z,99748.72
2022-12-15T11:47:31.648Z,99737.34
2022-12-15T11:50:56.130Z,99733.06
2022-12-15T11:54:17.207Z,99751.38
2022-12-15T11:58:14.380Z,99758.22
2022-12-15T12:01:28.905Z,99754.84
2022-12-15T12:04:50.774Z,99765.06
2022-12-15T12:08:15.335Z,99764.56
2022-12-15T12:11:29.465Z,99766.34
2022-12-15T12:14:51.813Z,99760.62
2022-12-15T12:18:11.696Z,99753.16
2022-12-15T12:21:16.890Z,99755.09
2022-12-15T12:24:22.858Z,99758.13
2022-12-15T12:27:45.193Z,99763.47
2022-12-15T12:30:54.307Z,99757.44
2022-12-15T12:34:06.464Z,99747.91
2022-12-15T12:37:34.981Z,99738.59
2022-12-15T12:40:40.504Z,99736.31
2022-12-15T12:43:50.412Z,99738.00
2022-12-15T12:46:57.281Z,99738.88
2022-12-15T12:50:15.371Z,99740.59
2022-12-15T12:53:33.244Z,99741.56
2022-12-15T12:56:45.622Z,99746.00
2022-12-15T13:00:00.962Z,99740.50
2022-12-15T13:03:11.043Z,99741.22
2022-12-15T13:06:49.100Z,99745.75
2022-12-15T13:10:08.388Z,99752.28
2022-12-15T13:13:29.774Z,99765.25
2022-12-15T13:16:33.291Z,99778.94
2022-12-15T13:20:01.328Z,99772.03
2022-12-15T13:23:36.888Z,99778.84
2022-12-15T13:26:44.981Z,99776.03
2022-12-15T13:30:06.905Z,99775.91
2022-12-15T13:33:19.328Z,99773.94
2022-12-15T13:36:38.223Z,99766.22
2022-12-15T13:39:57.414Z,99765.41
2022-12-15T13:43:03.467Z,99776.78
2022-12-15T13:46:20.606Z,99784.09
2022-12-15T13:49:49.129Z,99785.44
2022-12-15T13:53:18.265Z,99783.25
2022-12-15T13:56:46.005Z,99775.09
2022-12-15T14:00:07.824Z,99786.22
2022-12-15T14:03:14.839Z,99781.84
2022-12-15T14:06:17.642Z,99786.66
2022-12-15T14:09:25.502Z,99791.81
2022-12-15T14:12:29.335Z,99786.50
2022-12-15T14:15:33.273Z,99777.78
2022-12-15T14:18:39.140Z,99769.97
2022-12-15T14:21:53.665Z,99772.63
2022-12-15T14:25:02.559Z,99782.31
2022-12-15T14:28:27.362Z,99782.16
2022-12-15T14:31:31.031Z,99777.97
2022-12-15T14:34:39.481Z,99778.94
2022-12-15T14:37:43.763Z,99766.47
2022-12-15T14:40:49.328Z,99763.50
2022-12-15T14:44:31.693Z,99767.63
2022-12-15T14:47:26.863Z,99780.25
2022-12-15T14:50:30.382Z,99785.09
2022-12-15T14:53:37.550Z,99786.84
2022-12-15T14:56:40.192Z,99781.94
2022-12-15T14:59:45.370Z,99778.41
2022-12-15T15:02:48.582Z,99774.03
2022-12-15T15:05:57.601Z,99801.03
2022-12-15T15:09:12.672Z,99803.53
2022-12-15T15:12:19.169Z,99785.25
2022-12-15T15:15:26.657Z,99816.59
2022-12-15T15:18:30.366Z,99809.59
2022-12-15T15:21:37.342Z,99804.19
2022-12-15T15:24:40.170Z,99817.59
2022-12-15T15:27:42.987Z,99805.44
2022-12-15T15:30:56.596Z,99795.75
2022-12-15T15:33:59.782Z,99796.28
2022-12-15T15:37:05.869Z,99791.28
2022-12-15T15:40:13.580Z,99784.88
2022-12-15T15:43:16.607Z,99785.09
2022-12-15T15:46:25.761Z,99777.12
2022-12-15T15:49:28.663Z,99772.78
2022-12-15T15:52:32.068Z,99772.72
2022-12-15T15:55:39.619Z,99783.03
2022-12-15T15:58:43.873Z,99767.31
2022-12-15T16:01:52.622Z,99770.78
2022-12-15T16:04:55.582Z,99776.72
2022-12-15T16:07:58.685Z,99765.53
2022-12-15T16:11:01.717Z,99759.66
2022-12-15T16:14:06.626Z,99767.31
2022-12-15T16:17:09.640Z,99781.97
2022-12-15T16:20:14.929Z,99780.44
2022-12-15T16:23:29.199Z,99786.50
2022-12-15T16:26:33.930Z,99779.56
2022-12-15T16:29:36.816Z,99776.19
2022-12-15T16:32:39.765Z,99773.72
2022-12-15T16:35:44.745Z,99773.53
2022-12-15T16:38:48.161Z,99780.22
2022-12-15T16:41:53.799Z,99784.03
2022-12-15T16:44:56.673Z,99778.78
2022-12-15T16:47:59.521Z,99794.16
2022-12-15T16:51:06.924Z,99791.50
2022-12-15T16:54:17.041Z,99792.19
2022-12-15T16:57:19.930Z,99793.97
2022-12-15T17:00:26.127Z,99795.09
2022-12-15T17:03:29.262Z,99810.22
2022-12-15T17:06:33.410Z,99808.09
2022-12-15T17:09:38.087Z,99812.81
2022-12-15T17:12:40.971Z,99820.22
2022-12-15T17:15:43.824Z,99831.50
2022-12-15T17:22:14.053Z,99817.66
2022-12-15T17:25:37.432Z,99813.28
2022-12-15T17:28:43.565Z,99818.94
2022-12-15T17:31:46.659Z,99821.69
2022-12-15T17:34:49.965Z,99824.34
2022-12-15T17:37:53.349Z,99817.69
2022-12-15T17:40:56.722Z,99814.12
2022-12-15T17:44:31.052Z,99811.94
2022-12-15T17:47:24.318Z,99816.03
2022-12-15T17:50:27.285Z,99818.53
2022-12-15T17:53:30.952Z,99808.13
2022-12-15T17:56:34.076Z,99809.00
2022-12-15T17:59:37.145Z,99815.94
2022-12-15T18:02:40.344Z,99812.53
2022-12-15T18:05:44.006Z,99808.19
2022-12-15T18:08:46.573Z,99808.09
2022-12-15T18:11:49.763Z,99807.06
2022-12-15T18:14:53.094Z,99799.81
2022-12-15T18:17:57.392Z,99785.75
2022-12-15T18:21:02.132Z,99798.19
2022-12-15T18:24:21.458Z,99805.06
2022-12-15T18:27:26.014Z,99800.38
2022-12-15T18:30:29.432Z,99805.09
2022-12-15T18:33:32.545Z,99804.19
2022-12-15T18:36:36.100Z,99799.25
2022-12-15T18:39:38.626Z,99800.22
2022-12-15T18:42:42.112Z,99801.63
2022-12-15T18:45:46.137Z,99819.31
2022-12-15T18:48:49.439Z,99812.81
2022-12-15T18:51:52.196Z,99809.47
2022-12-15T18:54:55.659Z,99809.63
2022-12-15T18:58:00.327Z,99809.19
2022-12-15T19:01:05.980Z,99803.66
2022-12-15T19:04:09.195Z,99799.41
2022-12-15T19:07:12.194Z,99798.28
2022-12-15T19:10:14.787Z,99799.84
2022-12-15T19:13:21.342Z,99791.78
2022-12-15T19:16:24.108Z,99784.84
2022-12-15T19:19:45.705Z,99783.12
2022-12-15T19:22:49.215Z,99783.97
2022-12-15T19:25:53.535Z,99770.34
2022-12-15T19:28:56.153Z,99783.12
2022-12-15T19:31:59.412Z,99788.56
2022-12-15T19:35:01.916Z,99790.19
2022-12-15T19:38:05.731Z,99791.34
2022-12-15T19:41:14.267Z,99795.25
2022-12-15T19:44:17.491Z,99780.34
2022-12-15T19:47:19.987Z,99786.53
2022-12-15T19:50:36.744Z,99780.66
2022-12-15T19:53:40.791Z,99788.84
2022-12-15T19:56:44.230Z,99788.37
2022-12-15T19:59:46.783Z,99774.28
2022-12-15T20:02:51.827Z,99773.47
2022-12-15T20:05:56.373Z,99753.22
2022-12-15T20:08:59.742Z,99753.22
2022-12-15T20:12:02.562Z,99749.75
2022-12-15T20:15:16.295Z,99742.56
2022-12-15T20:18:19.249Z,99733.78
2022-12-15T20:21:27.167Z,99716.88
2022-12-15T20:24:32.418Z,99702.41
2022-12-15T20:27:35.197Z,99706.41
2022-12-15T20:30:38.192Z,99713.34
2022-12-15T20:33:42.520Z,99707.06
2022-12-15T20:36:47.413Z,99697.88
2022-12-15T20:39:57.480Z,99705.22
2022-12-15T20:43:01.468Z,99707.62
2022-12-15T20:46:08.462Z,99717.94
2022-12-15T20:49:18.628Z,99706.41
2022-12-15T20:52:25.609Z,99707.62
2022-12-15T20:55:29.238Z,99715.94
2022-12-15T20:58:33.247Z,99713.75
2022-12-15T21:01:38.999Z,99697.06
2022-12-15T21:04:42.323Z,99694.66
2022-12-15T21:07:45.778Z,99698.59
2022-12-15T21:10:49.685Z,99686.66
2022-12-15T21:13:55.005Z,99691.66
2022-12-15T21:16:58.546Z,99691.13
2022-12-15T21:20:01.426Z,99689.69
2022-12-15T21:23:04.803Z,99690.56
2022-12-15T21:26:10.321Z,99683.78
2022-12-15T21:29:19.021Z,99674.22
2022-12-15T21:32:24.719Z,99682.84
2022-12-15T21:35:31.778Z,99674.78
2022-12-15T21:38:39.835Z,99680.00
2022-12-15T21:41:43.966Z,99684.44
2022-12-15T21:44:47.839Z,99672.00
2022-12-15T21:48:09.967Z,99670.38
2022-12-15T21:51:16.054Z,99675.44
2022-12-15T21:54:26.001Z,99658.19
2022-12-15T21:57:28.894Z,99639.84
2022-12-15T22:00:31.639Z,99632.06
2022-12-15T22:03:36.435Z,99630.38
2022-12-15T22:06:39.186Z,99642.22
2022-12-15T22:09:42.089Z,99637.59
2022-12-15T22:12:54.638Z,99625.84
2022-12-15T22:16:02.278Z,99623.81
2022-12-15T22:19:11.479Z,99613.53
2022-12-15T22:22:14.394Z,99622.47
2022-12-15T22:25:20.207Z,99618.75
2022-12-15T22:28:25.614Z,99612.72
2022-12-15T22:31:29.127Z,99602.41
2022-12-15T22:34:32.363Z,99599.59
2022-12-15T22:37:35.187Z,99603.88
2022-12-15T22:40:38.092Z,99607.66
2022-12-15T22:43:43.435Z,99602.56
2022-12-15T22:46:46.894Z,99600.16
2022-12-15T22:49:49.846Z,99594.19
2022-12-15T22:52:53.107Z,99590.25
2022-12-15T22:56:00.404Z,99582.44
2022-12-15T22:59:08.091Z,99585.16
2022-12-15T23:02:11.578Z,99583.38
2022-12-15T23:05:17.125Z,99578.09
2022-12-15T23:08:19.876Z,99584.69
2022-12-15T23:11:38.277Z,99581.06
2022-12-15T23:14:59.761Z,99577.34
2022-12-15T23:18:02.517Z,99563.44
2022-12-15T23:21:05.969Z,99550.28
2022-12-15T23:24:09.360Z,99562.47
2022-12-15T23:27:12.443Z,99556.41
2022-12-15T23:30:15.974Z,99552.72
2022-12-15T23:33:18.789Z,99549.66
2022-12-15T23:36:21.443Z,99542.66
2022-12-15T23:39:24.222Z,99539.66
2022-12-15T23:42:27.455Z,99531.13
2022-12-15T23:45:30.206Z,99531.75
2022-12-15T23:48:35.355Z,99523.91
2022-12-15T23:51:38.102Z,99517.03
2022-12-15T23:54:40.867Z,99515.59
2022-12-15T23:57:43.582Z,99516.00
